Time;durP1;ratioP1;P1;durP2;ratioP2;P2;SDS_P1;SDS_P2;PMS_P1;PMS_P2;Temp;Humidity;BMP_temperature;BMP_pressure;BME280_temperature;BME280_humidity;BME280_pressure;Samples;Min_cycle;Max_cycle;Signal;HPM_P1;HPM_P2
2022/12/25 00:00:11;;;;;;;7.82;7.13;;;4.90;99.90;;;;;;5055686;28;20218;-76
2022/12/25 00:02:39;;;;;;;8.15;7.38;;;4.90;99.90;;;;;;5073853;28;20197;-73
2022/12/25 00:05:06;;;;;;;8.80;7.95;;;4.90;99.90;;;;;;5062775;28;20218;-74
2022/12/25 00:07:34;;;;;;;7.60;6.90;;;4.80;99.90;;;;;;5042017;28;20198;-74
2022/12/25 00:10:01;;;;;;;8.27;7.43;;;4.80;99.90;;;;;;5062787;28;20214;-73
2022/12/25 00:12:30;;;;;;;7.40;6.80;;;4.80;99.90;;;;;;5047515;28;20633;-74
2022/12/25 00:14:58;;;;;;;8.75;8.02;;;4.70;99.90;;;;;;5066014;28;20234;-75
2022/12/25 00:17:25;;;;;;;6.93;6.32;;;4.70;99.90;;;;;;5063438;28;20206;-74
2022/12/25 00:19:52;;;;;;;7.70;7.00;;;4.70;99.90;;;;;;5045884;28;20221;-74
2022/12/25 00:22:20;;;;;;;8.63;7.82;;;4.70;99.90;;;;;;5062776;28;20699;-74
2022/12/25 00:24:48;;;;;;;7.25;6.65;;;4.70;99.90;;;;;;5058582;28;20226;-74
2022/12/25 00:27:19;;;;;;;7.43;6.72;;;4.70;99.90;;;;;;5060899;28;20516;-75
2022/12/25 00:29:48;;;;;;;7.38;6.55;;;4.70;99.90;;;;;;5062266;28;20226;-74
2022/12/25 00:32:15;;;;;;;6.80;6.20;;;4.70;99.90;;;;;;5045059;28;20234;-74
2022/12/25 00:34:43;;;;;;;7.40;6.80;;;4.60;99.90;;;;;;5059630;28;20802;-74
2022/12/25 00:37:10;;;;;;;8.43;7.63;;;4.70;99.90;;;;;;5062507;28;20205;-73
2022/12/25 00:39:38;;;;;;;8.35;7.55;;;4.60;99.90;;;;;;5062932;28;20221;-74
2022/12/25 00:42:22;;;;;;;8.63;7.90;;;4.60;99.90;;;;;;5065885;28;20255;-74
2022/12/25 00:44:53;;;;;;;8.25;7.50;;;4.60;99.90;;;;;;5051770;28;20267;-74
2022/12/25 00:47:20;;;;;;;8.50;7.70;;;4.60;99.90;;;;;;5068597;28;20241;-76
2022/12/25 00:49:48;;;;;;;8.40;7.70;;;4.60;99.90;;;;;;5063318;28;20222;-74
2022/12/25 00:52:15;;;;;;;8.55;7.85;;;4.60;99.90;;;;;;5067780;28;20218;-76
2022/12/25 00:54:42;;;;;;;7.80;7.13;;;4.50;99.90;;;;;;5055198;28;20278;-80
2022/12/25 00:57:10;;;;;;;7.88;7.18;;;4.50;99.90;;;;;;5071747;28;20194;-74
2022/12/25 00:59:37;;;;;;;8.15;7.35;;;4.50;99.90;;;;;;5047371;28;20261;-77
2022/12/25 01:04:51;;;;;;;7.90;7.20;;;4.50;99.90;;;;;;5062615;28;20247;-74
2022/12/25 01:07:20;;;;;;;7.97;7.28;;;4.40;99.90;;;;;;5059953;28;20395;-75
2022/12/25 01:12:33;;;;;;;7.45;6.80;;;4.40;99.90;;;;;;5064008;28;20228;-74
2022/12/25 01:15:00;;;;;;;8.15;7.35;;;4.40;99.90;;;;;;5061383;28;20218;-75
2022/12/25 01:17:29;;;;;;;7.20;6.60;;;4.40;99.90;;;;;;5077181;28;20608;-76
2022/12/25 01:19:57;;;;;;;7.18;6.57;;;4.40;99.90;;;;;;5032838;28;20283;-72
2022/12/25 01:22:24;;;;;;;7.03;6.43;;;4.40;99.90;;;;;;5044792;28;20759;-75
2022/12/25 01:24:52;;;;;;;7.43;6.82;;;4.40;99.90;;;;;;5063716;28;20226;-72
2022/12/25 01:27:19;;;;;;;6.85;6.25;;;4.40;99.90;;;;;;5049798;28;20202;-74
2022/12/25 01:29:47;;;;;;;7.05;6.38;;;4.30;99.90;;;;;;5063388;28;20226;-75
2022/12/25 01:32:15;;;;;;;7.10;6.60;;;4.30;99.90;;;;;;5068014;28;20229;-74
2022/12/25 01:34:44;;;;;;;6.85;6.25;;;4.30;99.90;;;;;;5065292;28;20689;-74
2022/12/25 01:37:11;;;;;;;6.65;6.15;;;4.30;99.90;;;;;;5069887;28;20198;-72
2022/12/25 01:39:38;;;;;;;6.68;6.07;;;4.30;99.90;;;;;;5063306;28;20222;-73
2022/12/25 01:42:06;;;;;;;7.68;7.03;;;4.30;99.90;;;;;;5065119;28;20202;-75
2022/12/25 01:45:20;;;;;;;7.85;7.15;;;4.30;99.90;;;;;;5066753;28;20248;-75
2022/12/25 01:47:48;;;;;;;7.53;6.82;;;4.20;99.90;;;;;;5060712;28;20198;-75
2022/12/25 01:50:17;;;;;;;7.03;6.43;;;4.20;99.90;;;;;;5048691;28;20633;-75
2022/12/25 01:52:45;;;;;;;6.68;6.18;;;4.20;99.90;;;;;;5066906;28;20226;-74
2022/12/25 01:55:14;;;;;;;7.15;6.55;;;4.10;99.90;;;;;;5068461;28;20694;-75
2022/12/25 01:57:43;;;;;;;7.15;6.65;;;4.20;99.90;;;;;;5069270;28;20198;-74
2022/12/25 02:00:12;;;;;;;7.22;6.45;;;4.20;99.90;;;;;;5068186;28;20590;-76
2022/12/25 02:02:41;;;;;;;7.20;6.50;;;4.20;99.90;;;;;;5066976;28;20202;-75
2022/12/25 02:05:14;;;;;;;7.05;6.45;;;4.20;99.90;;;;;;5070277;28;20245;-75
2022/12/25 02:07:46;;;;;;;8.27;7.47;;;4.10;99.90;;;;;;5064971;28;20687;-73
2022/12/25 02:10:14;;;;;;;8.05;7.30;;;4.10;99.90;;;;;;5069763;28;20245;-74
2022/12/25 02:12:43;;;;;;;7.75;7.05;;;4.10;99.90;;;;;;5065560;28;20624;-75
2022/12/25 02:15:15;;;;;;;8.90;7.28;;;4.00;99.90;;;;;;5068146;28;20217;-77
2022/12/25 02:17:51;;;;;;;8.23;7.43;;;4.00;99.90;;;;;;5066494;28;20203;-78
2022/12/25 02:20:47;;;;;;;8.55;7.65;;;4.00;99.90;;;;;;5068085;28;20229;-73
2022/12/25 02:23:33;;;;;;;8.07;7.28;;;4.00;99.90;;;;;;5064638;28;20218;-74
2022/12/25 02:26:15;;;;;;;8.05;7.25;;;4.00;99.90;;;;;;5045438;28;20698;-80
2022/12/25 02:28:53;;;;;;;7.50;6.80;;;3.90;99.90;;;;;;5052357;28;20629;-74
2022/12/25 02:31:28;;;;;;;8.48;7.57;;;3.90;99.90;;;;;;5072407;28;20194;-75
2022/12/25 02:34:04;;;;;;;7.53;6.88;;;3.90;99.90;;;;;;5065941;28;20228;-74
2022/12/25 02:36:39;;;;;;;5.97;5.47;;;3.90;99.90;;;;;;5065426;28;20201;-75
2022/12/25 02:42:02;;;;;;;7.32;6.70;;;3.90;99.90;;;;;;5063260;28;20193;-75
2022/12/25 03:07:08;;;;;;;6.78;6.18;;;3.80;99.90;;;;;;5068018;28;20304;-81
2022/12/25 03:12:41;;;;;;;7.15;6.55;;;3.80;99.90;;;;;;5063553;28;20221;-79
2022/12/25 03:17:59;;;;;;;6.63;6.13;;;3.90;99.90;;;;;;5052703;28;20204;-80
2022/12/25 03:28:43;;;;;;;7.38;6.78;;;3.70;99.90;;;;;;5065662;28;20225;-80
2022/12/25 03:31:15;;;;;;;7.72;7.13;;;3.70;99.90;;;;;;5067728;28;21450;-77
2022/12/25 04:36:11;;;;;;;6.90;6.30;;;3.70;99.90;;;;;;5059757;28;20232;-83
2022/12/25 04:38:40;;;;;;;6.75;6.25;;;3.70;99.90;;;;;;5062555;28;20279;-82
2022/12/25 04:41:09;;;;;;;7.22;6.63;;;3.60;99.90;;;;;;5060498;28;20480;-80
2022/12/25 04:43:38;;;;;;;7.47;6.78;;;3.70;99.90;;;;;;5058434;28;20249;-82
2022/12/25 04:46:06;;;;;;;7.50;6.90;;;3.60;99.90;;;;;;5062827;28;20284;-82
2022/12/25 04:48:37;;;;;;;6.85;6.28;;;3.60;99.90;;;;;;5042353;28;20199;-79
2022/12/25 04:51:12;;;;;;;7.40;6.80;;;3.60;99.90;;;;;;5065204;28;20628;-77
2022/12/25 04:53:40;;;;;;;6.57;6.07;;;3.60;99.90;;;;;;5061017;28;20222;-81
2022/12/25 04:56:09;;;;;;;6.90;6.40;;;3.60;99.90;;;;;;5062364;28;20205;-80
2022/12/25 04:58:38;;;;;;;6.95;6.45;;;3.60;99.90;;;;;;5064123;28;20222;-81
2022/12/25 05:01:06;;;;;;;6.70;6.20;;;3.60;99.90;;;;;;5065237;28;20201;-77
2022/12/25 05:03:34;;;;;;;6.13;5.63;;;3.50;99.90;;;;;;5065100;28;20214;-74
2022/12/25 05:06:02;;;;;;;6.47;5.97;;;3.60;99.90;;;;;;5062197;28;20198;-79
2022/12/25 05:08:30;;;;;;;6.13;5.63;;;3.50;99.90;;;;;;5062021;28;20607;-77
2022/12/25 05:10:57;;;;;;;6.72;6.22;;;3.50;99.90;;;;;;5059412;28;20206;-79
2022/12/25 05:13:25;;;;;;;6.95;6.40;;;3.50;99.90;;;;;;5060831;28;20227;-83
2022/12/25 05:15:54;;;;;;;7.60;6.90;;;3.50;99.90;;;;;;5062027;28;20675;-78
2022/12/25 05:18:22;;;;;;;7.47;6.97;;;3.50;99.90;;;;;;5063946;28;20667;-80
2022/12/25 05:20:53;;;;;;;7.88;7.28;;;3.50;99.90;;;;;;5064522;28;20214;-81
2022/12/25 05:23:22;;;;;;;7.75;7.05;;;3.50;99.90;;;;;;5043184;28;20293;-81
2022/12/25 05:25:49;;;;;;;7.50;6.90;;;3.50;99.90;;;;;;5043566;28;20210;-81
2022/12/25 05:28:18;;;;;;;7.95;7.25;;;3.50;99.90;;;;;;5060477;28;20198;-76
2022/12/25 05:30:45;;;;;;;8.38;7.68;;;3.50;99.90;;;;;;5044607;28;20199;-83
2022/12/25 05:33:14;;;;;;;7.18;6.57;;;3.40;99.90;;;;;;5059913;28;20229;-75
2022/12/25 05:35:41;;;;;;;7.15;6.55;;;3.40;99.90;;;;;;5058120;28;20642;-83
2022/12/25 05:38:09;;;;;;;7.00;6.50;;;3.40;99.90;;;;;;5045962;28;20260;-79
2022/12/25 05:40:40;;;;;;;6.25;5.85;;;3.30;99.90;;;;;;5063085;28;20229;-82
2022/12/25 05:43:08;;;;;;;6.70;6.15;;;3.30;99.90;;;;;;5060051;28;20210;-76
2022/12/25 05:45:35;;;;;;;7.63;6.97;;;3.30;99.90;;;;;;5059599;28;20221;-80
2022/12/25 05:48:02;;;;;;;7.20;6.65;;;3.30;99.90;;;;;;5057995;28;20211;-80
2022/12/25 05:50:31;;;;;;;6.80;6.30;;;3.30;99.90;;;;;;5063551;28;20218;-82
2022/12/25 05:52:58;;;;;;;7.13;6.60;;;3.30;99.90;;;;;;5046054;28;20218;-81
2022/12/25 05:55:26;;;;;;;7.25;6.65;;;3.30;99.90;;;;;;5047837;28;20226;-78
2022/12/25 05:57:53;;;;;;;7.50;6.90;;;3.30;99.90;;;;;;5061272;28;20210;-82
2022/12/25 06:00:21;;;;;;;6.70;6.10;;;3.20;99.90;;;;;;5045434;28;20222;-82
2022/12/25 06:02:50;;;;;;;6.88;6.38;;;3.30;99.90;;;;;;5063087;28;20656;-77
2022/12/25 06:05:17;;;;;;;7.63;7.03;;;3.30;99.90;;;;;;5058853;28;20218;-82
2022/12/25 06:07:46;;;;;;;6.68;6.07;;;3.30;99.90;;;;;;5063276;28;20210;-78
2022/12/25 06:10:14;;;;;;;7.32;6.70;;;3.30;99.90;;;;;;5064198;28;20222;-81
2022/12/25 06:12:41;;;;;;;7.53;6.93;;;3.30;99.90;;;;;;5066223;28;20695;-78
2022/12/25 06:15:09;;;;;;;7.68;7.07;;;3.30;99.90;;;;;;5065336;28;20222;-82
2022/12/25 06:17:37;;;;;;;7.63;6.93;;;3.30;99.90;;;;;;5066108;28;20202;-74
2022/12/25 06:20:04;;;;;;;7.72;7.03;;;3.30;99.90;;;;;;5061790;28;20210;-75
2022/12/25 06:22:32;;;;;;;7.32;6.72;;;3.30;99.90;;;;;;5067610;28;20614;-74
2022/12/25 06:25:01;;;;;;;7.60;6.90;;;3.30;99.90;;;;;;5067757;28;20232;-78
2022/12/25 06:27:28;;;;;;;7.72;7.13;;;3.30;99.90;;;;;;5066966;28;20201;-76
2022/12/25 06:29:57;;;;;;;7.80;7.13;;;3.20;99.90;;;;;;5066262;28;20237;-78
2022/12/25 06:32:24;;;;;;;7.35;6.78;;;3.20;99.90;;;;;;5066770;28;20190;-77
2022/12/25 06:34:52;;;;;;;7.68;7.07;;;3.20;99.90;;;;;;5064927;28;20219;-73
2022/12/25 06:37:20;;;;;;;7.65;7.05;;;3.20;99.90;;;;;;5064928;28;20682;-74
2022/12/25 06:39:47;;;;;;;7.63;7.07;;;3.20;99.90;;;;;;5063063;28;20218;-81
2022/12/25 06:42:16;;;;;;;7.07;6.57;;;3.10;99.90;;;;;;5064500;28;20202;-77
2022/12/25 06:44:43;;;;;;;7.38;6.78;;;3.10;99.90;;;;;;5065994;28;20283;-80
2022/12/25 06:47:11;;;;;;;7.03;6.43;;;3.10;99.90;;;;;;5062130;28;20205;-77
2022/12/25 06:49:39;;;;;;;7.80;7.10;;;3.10;99.90;;;;;;5062331;28;20571;-79
2022/12/25 06:52:06;;;;;;;8.18;7.47;;;3.00;99.90;;;;;;5062298;28;20644;-80
2022/12/25 06:54:34;;;;;;;8.43;7.72;;;3.00;99.90;;;;;;5065198;28;20257;-82
2022/12/25 06:57:01;;;;;;;7.80;7.20;;;3.00;99.90;;;;;;5066855;28;20207;-75
2022/12/25 06:59:30;;;;;;;7.88;7.18;;;3.00;99.90;;;;;;5079598;28;20617;-79
2022/12/25 07:01:58;;;;;;;9.10;8.30;;;3.00;99.90;;;;;;5053013;28;20199;-74
2022/12/25 07:04:31;;;;;;;9.30;8.48;;;3.00;99.90;;;;;;5027731;28;20662;-81
2022/12/25 07:06:59;;;;;;;8.50;7.80;;;3.00;99.90;;;;;;5062662;28;20256;-78
2022/12/25 07:09:26;;;;;;;8.43;7.70;;;3.00;99.90;;;;;;5045132;28;20234;-80
2022/12/25 07:11:54;;;;;;;9.05;8.25;;;3.00;99.90;;;;;;5060030;28;20745;-73
2022/12/25 07:14:23;;;;;;;12.63;11.38;;;3.00;99.90;;;;;;5062292;28;20222;-82
2022/12/25 07:16:52;;;;;;;14.63;13.23;;;3.00;99.90;;;;;;5056178;28;20205;-79
2022/12/25 07:19:21;;;;;;;12.60;11.40;;;3.00;99.90;;;;;;5057714;28;20248;-77
2022/12/25 07:21:48;;;;;;;12.70;11.40;;;3.00;99.90;;;;;;5059832;28;20650;-74
2022/12/25 07:24:19;;;;;;;11.63;10.50;;;3.00;99.90;;;;;;5024246;28;20275;-80
2022/12/25 07:26:48;;;;;;;10.77;9.77;;;3.00;99.90;;;;;;5058045;28;20719;-75
2022/12/25 07:29:15;;;;;;;10.85;9.85;;;3.00;99.90;;;;;;5057975;28;20278;-75
2022/12/25 07:31:44;;;;;;;10.43;9.50;;;3.00;99.90;;;;;;5062318;28;20211;-72
2022/12/25 07:34:13;;;;;;;9.75;8.95;;;3.00;99.90;;;;;;5062977;28;20226;-76
2022/12/25 07:36:40;;;;;;;11.77;10.63;;;3.00;99.90;;;;;;5055054;28;20203;-78
2022/12/25 07:39:09;;;;;;;10.55;9.65;;;3.00;99.90;;;;;;5043749;28;20637;-75
2022/12/25 07:41:37;;;;;;;9.32;8.52;;;3.10;99.90;;;;;;5059995;28;20202;-74
2022/12/25 07:44:05;;;;;;;9.77;8.98;;;3.10;99.90;;;;;;5060716;28;20222;-74
2022/12/25 07:46:32;;;;;;;9.55;8.68;;;3.10;99.90;;;;;;5058600;28;20206;-78
2022/12/25 07:49:03;;;;;;;9.95;9.15;;;3.10;99.90;;;;;;5058375;28;20222;-74
2022/12/25 07:51:32;;;;;;;9.15;8.45;;;3.10;99.90;;;;;;5058661;28;20203;-74
2022/12/25 07:53:59;;;;;;;9.18;8.30;;;3.10;99.90;;;;;;5058218;28;20741;-76
2022/12/25 07:56:27;;;;;;;8.85;8.10;;;3.10;99.90;;;;;;5058784;28;20238;-73
2022/12/25 07:58:54;;;;;;;8.05;7.35;;;3.10;99.90;;;;;;5058113;28;20222;-76
2022/12/25 08:01:23;;;;;;;8.48;7.70;;;3.10;99.90;;;;;;5060037;28;20692;-80
2022/12/25 08:03:53;;;;;;;9.07;8.30;;;3.10;99.90;;;;;;5060830;28;20225;-77
2022/12/25 08:06:22;;;;;;;9.05;8.25;;;3.20;99.90;;;;;;5053815;28;20195;-78
2022/12/25 08:08:51;;;;;;;10.27;9.38;;;3.20;99.90;;;;;;5045694;28;20225;-76
2022/12/25 08:11:18;;;;;;;9.48;8.57;;;3.20;99.90;;;;;;5061071;28;20202;-76
2022/12/25 08:13:45;;;;;;;10.23;9.32;;;3.20;99.90;;;;;;5057942;28;20226;-77
2022/12/25 08:16:13;;;;;;;11.18;10.18;;;3.20;99.90;;;;;;5061090;28;20201;-75
2022/12/25 08:18:41;;;;;;;9.95;9.10;;;3.20;99.90;;;;;;5062198;28;20221;-81
2022/12/25 08:21:11;;;;;;;10.55;9.65;;;3.50;99.90;;;;;;5041337;28;20234;-79
2022/12/25 08:23:40;;;;;;;10.15;9.20;;;4.30;99.90;;;;;;5054424;28;20295;-82
2022/12/25 08:26:12;;;;;;;10.73;9.82;;;5.20;99.90;;;;;;5056243;28;20214;-78
2022/12/25 08:28:40;;;;;;;9.73;8.93;;;6.10;99.90;;;;;;5060029;28;20225;-75
2022/12/25 08:31:09;;;;;;;9.63;8.80;;;7.00;99.90;;;;;;5060566;28;20288;-75
2022/12/25 08:33:37;;;;;;;10.50;9.60;;;7.70;99.90;;;;;;5055760;28;20519;-75
2022/12/25 08:36:08;;;;;;;10.30;9.40;;;8.20;99.90;;;;;;5054867;28;20195;-75
2022/12/25 08:38:37;;;;;;;11.15;10.15;;;8.80;99.90;;;;;;5058614;28;20230;-75
2022/12/25 08:41:05;;;;;;;11.05;10.10;;;9.30;99.90;;;;;;5055175;28;20248;-75
2022/12/25 08:43:34;;;;;;;10.73;9.73;;;9.70;99.90;;;;;;5055301;28;20219;-75
2022/12/25 08:46:01;;;;;;;11.57;10.55;;;10.00;99.90;;;;;;5041274;28;20248;-79
2022/12/25 08:48:28;;;;;;;12.55;11.35;;;10.50;99.90;;;;;;5063605;28;20618;-76
2022/12/25 08:50:56;;;;;;;11.57;10.50;;;10.90;99.90;;;;;;5059694;28;20217;-75
2022/12/25 08:53:23;;;;;;;11.20;10.25;;;11.40;99.90;;;;;;5057778;28;20221;-78
2022/12/25 08:55:57;;;;;;;11.15;10.10;;;12.10;99.90;;;;;;5061159;28;20201;-80
2022/12/25 08:58:24;;;;;;;11.05;10.07;;;12.60;99.90;;;;;;5044761;28;20714;-80
2022/12/25 09:00:53;;;;;;;11.35;10.18;;;13.30;99.90;;;;;;5059436;28;20278;-81
2022/12/25 09:03:21;;;;;;;11.82;10.73;;;13.60;99.90;;;;;;5057304;28;20223;-78
2022/12/25 09:05:48;;;;;;;11.18;10.18;;;14.20;99.90;;;;;;5039985;28;20205;-77
2022/12/25 09:08:15;;;;;;;11.35;10.25;;;14.80;99.90;;;;;;5064706;28;20622;-76
2022/12/25 09:10:42;;;;;;;10.43;9.48;;;15.10;99.90;;;;;;5060250;28;20202;-75
2022/12/25 09:13:11;;;;;;;10.25;9.25;;;15.70;99.90;;;;;;5029008;28;20214;-76
2022/12/25 09:15:39;;;;;;;9.65;8.70;;;16.40;99.90;;;;;;5057303;28;20306;-75
2022/12/25 09:18:08;;;;;;;9.73;8.82;;;17.40;99.90;;;;;;5059793;28;20190;-79
2022/12/25 09:20:35;;;;;;;9.23;8.43;;;18.50;99.90;;;;;;5034573;28;20242;-80
2022/12/25 09:23:02;;;;;;;9.05;8.18;;;19.60;99.90;;;;;;5053492;28;20210;-81
2022/12/25 09:25:30;;;;;;;9.40;8.50;;;20.50;99.90;;;;;;5057405;28;20863;-77
2022/12/25 09:27:57;;;;;;;9.90;9.00;;;21.30;99.90;;;;;;5062431;28;20199;-77
2022/12/25 09:30:25;;;;;;;9.65;8.75;;;21.70;99.90;;;;;;5061038;28;20218;-75
2022/12/25 09:32:52;;;;;;;9.10;8.30;;;22.10;99.90;;;;;;5055802;28;20248;-77
2022/12/25 09:35:20;;;;;;;8.52;7.82;;;22.00;99.90;;;;;;5059338;28;20883;-78
2022/12/25 09:37:48;;;;;;;8.63;7.82;;;22.30;99.90;;;;;;5056019;28;20199;-76
2022/12/25 09:40:19;;;;;;;8.77;7.95;;;22.50;99.90;;;;;;5059564;28;20217;-75
2022/12/25 09:42:47;;;;;;;8.80;8.00;;;22.70;99.90;;;;;;5041807;28;20213;-75
2022/12/25 09:45:18;;;;;;;8.18;7.47;;;22.30;99.90;;;;;;5058309;28;20222;-75
2022/12/25 09:47:48;;;;;;;9.18;8.27;;;22.70;99.90;;;;;;5060935;28;20206;-78
2022/12/25 09:50:19;;;;;;;9.85;8.82;;;22.80;99.50;;;;;;5065196;28;20241;-79
2022/12/25 09:52:55;;;;;;;8.55;7.85;;;23.00;98.50;;;;;;5059434;28;20197;-75
2022/12/25 09:55:24;;;;;;;8.75;7.95;;;22.80;97.80;;;;;;5064962;28;20303;-78
2022/12/25 09:57:54;;;;;;;8.80;8.00;;;22.50;97.90;;;;;;5067197;28;20698;-75
2022/12/25 10:00:23;;;;;;;9.70;8.80;;;22.20;98.10;;;;;;5060357;28;20218;-76
2022/12/25 10:03:18;;;;;;;9.38;8.55;;;21.60;98.20;;;;;;5060200;28;20198;-79
2022/12/25 10:06:02;;;;;;;8.25;7.55;;;20.80;99.00;;;;;;5005790;28;20225;-79
2022/12/25 10:09:01;;;;;;;8.32;7.53;;;19.60;99.90;;;;;;5056498;28;20210;-75
2022/12/25 10:11:47;;;;;;;9.75;8.88;;;18.40;99.90;;;;;;5033115;28;20209;-76
2022/12/25 10:14:25;;;;;;;8.85;8.07;;;17.20;99.90;;;;;;5063353;28;20283;-76
2022/12/25 10:17:04;;;;;;;8.07;7.40;;;16.50;99.90;;;;;;5041819;28;20522;-76
2022/12/25 10:19:41;;;;;;;7.63;7.03;;;16.00;99.90;;;;;;5060919;28;20229;-76
2022/12/25 10:22:12;;;;;;;8.88;8.07;;;15.80;99.90;;;;;;5063494;28;20206;-78
2022/12/25 10:24:45;;;;;;;8.65;7.95;;;15.40;99.90;;;;;;5060790;28;20217;-78
2022/12/25 10:27:19;;;;;;;8.18;7.47;;;15.20;99.90;;;;;;5059221;28;20193;-77
2022/12/25 10:29:54;;;;;;;9.50;8.60;;;15.20;99.90;;;;;;5061691;28;20224;-78
2022/12/25 10:32:23;;;;;;;8.85;8.15;;;15.10;99.90;;;;;;5058473;28;20251;-76
2022/12/25 10:34:51;;;;;;;8.90;8.10;;;15.10;99.90;;;;;;5057354;28;20641;-75
2022/12/25 10:37:19;;;;;;;8.32;7.63;;;14.90;99.90;;;;;;5045293;28;20198;-78
2022/12/25 10:39:46;;;;;;;8.68;7.97;;;14.90;99.90;;;;;;5045364;28;20222;-75
2022/12/25 10:42:37;;;;;;;8.30;7.60;;;14.90;99.90;;;;;;5063968;28;20203;-74
2022/12/25 10:45:07;;;;;;;8.77;8.00;;;14.90;99.90;;;;;;5064055;28;20637;-75
2022/12/25 10:47:36;;;;;;;8.25;7.50;;;14.90;99.90;;;;;;5059837;28;20204;-74
2022/12/25 10:50:10;;;;;;;9.05;8.32;;;14.60;99.90;;;;;;5060787;28;20692;-74
2022/12/25 10:52:51;;;;;;;10.10;9.20;;;14.50;99.90;;;;;;5069339;28;20240;-77
2022/12/25 10:55:21;;;;;;;9.93;9.10;;;14.60;99.90;;;;;;5064639;28;20752;-77
2022/12/25 10:57:50;;;;;;;9.10;8.20;;;14.60;99.90;;;;;;5058479;28;20675;-79
2022/12/25 11:00:21;;;;;;;10.00;8.98;;;14.60;99.90;;;;;;5062926;28;20233;-77
2022/12/25 11:02:50;;;;;;;10.07;9.10;;;14.70;99.90;;;;;;5028815;28;20226;-75
2022/12/25 11:05:26;;;;;;;11.10;9.82;;;14.70;99.90;;;;;;5057715;28;20218;-74
2022/12/25 11:07:54;;;;;;;10.00;9.10;;;14.80;99.90;;;;;;5060139;28;20289;-75
2022/12/25 11:10:25;;;;;;;9.57;8.73;;;14.80;99.90;;;;;;5059649;28;20218;-75
2022/12/25 11:12:54;;;;;;;8.73;7.90;;;14.80;99.90;;;;;;5065050;28;20827;-74
2022/12/25 11:15:41;;;;;;;9.38;8.57;;;14.70;99.90;;;;;;5062147;28;20225;-75
2022/12/25 11:18:20;;;;;;;9.45;8.55;;;14.70;99.90;;;;;;5075168;28;20198;-75
2022/12/25 11:20:52;;;;;;;9.05;8.25;;;14.70;99.90;;;;;;5062693;28;20335;-75
2022/12/25 11:23:21;;;;;;;9.57;8.68;;;14.70;99.90;;;;;;5063035;28;20206;-76
2022/12/25 11:25:56;;;;;;;9.30;8.50;;;14.60;99.90;;;;;;5062864;28;20647;-78
2022/12/25 11:28:26;;;;;;;9.80;9.00;;;14.70;99.90;;;;;;5049647;28;20202;-76
2022/12/25 11:30:58;;;;;;;10.30;9.40;;;14.70;99.90;;;;;;5059835;28;20206;-76
2022/12/25 11:33:30;;;;;;;9.82;8.85;;;14.60;99.90;;;;;;5063829;28;20776;-79
2022/12/25 11:36:00;;;;;;;8.82;8.02;;;14.70;99.90;;;;;;5066895;28;20218;-75
2022/12/25 11:38:28;;;;;;;9.38;8.48;;;14.70;99.90;;;;;;5062384;28;20218;-75
2022/12/25 11:40:58;;;;;;;9.40;8.55;;;14.80;99.90;;;;;;5059666;28;20202;-77
2022/12/25 11:43:33;;;;;;;8.52;7.78;;;14.80;99.90;;;;;;5047682;28;20780;-75
2022/12/25 11:46:12;;;;;;;8.88;8.07;;;14.60;99.90;;;;;;5064026;28;21455;-76
2022/12/25 11:48:44;;;;;;;9.48;8.57;;;14.00;99.90;;;;;;5040610;28;20230;-75
2022/12/25 11:51:14;;;;;;;9.10;8.30;;;13.50;99.90;;;;;;5062901;28;20218;-77
2022/12/25 11:53:47;;;;;;;9.50;8.60;;;13.30;99.90;;;;;;5059362;28;20230;-77
2022/12/25 11:56:18;;;;;;;10.63;9.73;;;13.30;99.90;;;;;;5061703;28;20233;-80
2022/12/25 11:58:49;;;;;;;10.20;9.30;;;13.30;99.90;;;;;;5064403;28;20222;-77
2022/12/25 12:01:24;;;;;;;10.63;9.63;;;13.40;99.90;;;;;;5061618;28;20194;-77
2022/12/25 12:03:51;;;;;;;10.15;9.35;;;13.20;99.90;;;;;;5061442;28;20240;-80
2022/12/25 12:06:27;;;;;;;10.55;9.57;;;13.40;99.90;;;;;;5060322;28;20195;-78
2022/12/25 12:09:00;;;;;;;10.32;9.43;;;13.40;99.90;;;;;;5057716;28;20807;-78
2022/12/25 12:11:33;;;;;;;10.23;9.23;;;13.20;99.90;;;;;;5057906;28;20186;-76
2022/12/25 12:14:18;;;;;;;11.70;10.05;;;13.00;99.90;;;;;;5056251;28;20588;-84
2022/12/25 12:16:45;;;;;;;10.38;9.48;;;12.70;99.90;;;;;;5051949;28;20226;-79
2022/12/25 12:19:25;;;;;;;10.50;9.40;;;12.70;99.90;;;;;;5057159;28;20708;-83
2022/12/25 12:21:53;;;;;;;10.02;9.23;;;12.80;99.90;;;;;;5060840;28;20309;-80
2022/12/25 12:24:22;;;;;;;10.93;10.02;;;12.80;99.90;;;;;;5060992;28;20234;-86
2022/12/25 12:27:01;;;;;;;12.65;11.48;;;12.80;99.90;;;;;;5058761;28;20194;-81
2022/12/25 12:29:32;;;;;;;11.23;10.13;;;12.50;99.90;;;;;;5060238;28;20229;-83
2022/12/25 12:32:02;;;;;;;12.07;10.90;;;12.00;99.90;;;;;;5072493;28;20761;-78
2022/12/25 12:34:32;;;;;;;12.85;11.65;;;12.00;99.90;;;;;;5052368;28;20234;-76
2022/12/25 12:37:09;;;;;;;12.55;11.45;;;11.70;99.90;;;;;;5060094;28;20206;-74
2022/12/25 12:39:40;;;;;;;13.43;12.20;;;11.70;99.90;;;;;;5056749;28;20585;-73
2022/12/25 12:42:14;;;;;;;13.15;11.82;;;11.70;99.90;;;;;;5058358;28;20255;-82
2022/12/25 12:44:44;;;;;;;12.70;11.50;;;11.60;99.90;;;;;;5064119;28;20233;-83
2022/12/25 12:47:29;;;;;;;11.35;10.43;;;11.30;99.90;;;;;;5063534;28;20202;-75
2022/12/25 12:49:59;;;;;;;13.35;11.95;;;10.90;99.90;;;;;;5046304;28;20260;-80
2022/12/25 12:52:32;;;;;;;11.50;10.35;;;10.80;99.90;;;;;;5061284;28;20921;-77
2022/12/25 12:55:02;;;;;;;10.82;9.82;;;11.10;99.90;;;;;;5063079;28;20238;-78
2022/12/25 12:57:38;;;;;;;10.60;9.70;;;11.20;99.90;;;;;;5064803;28;20206;-79
2022/12/25 13:00:18;;;;;;;10.38;9.43;;;11.40;99.90;;;;;;5060533;28;20423;-73
2022/12/25 13:03:30;;;;;;;9.55;8.65;;;11.60;99.90;;;;;;5061449;28;20198;-75
2022/12/25 13:06:02;;;;;;;10.93;9.98;;;12.00;99.90;;;;;;5041441;28;20254;-79
2022/12/25 13:08:46;;;;;;;10.75;9.75;;;12.20;99.90;;;;;;5059530;28;20887;-77
2022/12/25 13:11:18;;;;;;;11.20;10.20;;;12.40;99.90;;;;;;5057978;28;20196;-85
2022/12/25 13:13:47;;;;;;;11.63;10.55;;;12.50;99.90;;;;;;5057372;28;20226;-75
2022/12/25 13:16:23;;;;;;;11.02;10.02;;;12.60;99.90;;;;;;5040090;28;20218;-88
2022/12/25 13:18:52;;;;;;;11.77;10.68;;;12.70;99.90;;;;;;5053338;28;22043;-81
2022/12/25 13:21:23;;;;;;;10.48;9.48;;;12.70;99.90;;;;;;5057541;28;20677;-81
2022/12/25 13:23:57;;;;;;;12.25;11.07;;;12.70;99.90;;;;;;5063335;28;20230;-81
2022/12/25 13:26:24;;;;;;;11.25;10.15;;;12.60;99.90;;;;;;5066130;28;20822;-83
2022/12/25 13:28:54;;;;;;;11.25;10.25;;;12.50;99.90;;;;;;5065954;28;20236;-77
2022/12/25 13:31:25;;;;;;;10.88;9.98;;;12.50;99.90;;;;;;5059800;28;20252;-84
2022/12/25 13:33:58;;;;;;;10.57;9.52;;;12.50;99.90;;;;;;5062897;28;20234;-82
2022/12/25 13:36:27;;;;;;;11.18;10.20;;;12.50;99.90;;;;;;5065203;28;20214;-82
2022/12/25 13:38:57;;;;;;;11.48;10.48;;;12.40;99.90;;;;;;5061948;28;20722;-78
2022/12/25 13:44:17;;;;;;;10.57;9.68;;;12.00;99.90;;;;;;5065854;28;20225;-79
2022/12/25 13:46:46;;;;;;;8.80;8.02;;;11.60;99.90;;;;;;5069356;28;20202;-85
2022/12/25 13:49:16;;;;;;;9.20;8.35;;;11.20;99.90;;;;;;5065998;28;20234;-76
2022/12/25 13:51:44;;;;;;;9.30;8.50;;;10.70;99.90;;;;;;5063565;28;20194;-83
2022/12/25 13:54:13;;;;;;;8.77;8.05;;;10.50;99.90;;;;;;5063255;28;20703;-76
2022/12/25 13:56:48;;;;;;;9.88;9.07;;;10.50;99.90;;;;;;5057560;28;20225;-80
2022/12/25 13:59:18;;;;;;;10.20;9.20;;;10.30;99.90;;;;;;5063835;28;20222;-75
2022/12/25 14:01:48;;;;;;;10.35;9.38;;;10.00;99.90;;;;;;5062471;28;20195;-74
2022/12/25 14:04:17;;;;;;;10.23;9.32;;;9.80;99.90;;;;;;5047614;28;20296;-76
2022/12/25 14:06:44;;;;;;;10.65;9.48;;;9.60;99.90;;;;;;5063848;28;20568;-74
2022/12/25 14:09:13;;;;;;;9.48;8.57;;;9.50;99.90;;;;;;5066972;28;20232;-77
2022/12/25 14:11:42;;;;;;;8.85;8.05;;;9.40;99.90;;;;;;5065140;28;20198;-74
2022/12/25 14:14:18;;;;;;;9.35;8.55;;;9.30;99.90;;;;;;5060758;28;20703;-75
2022/12/25 14:16:49;;;;;;;9.07;8.27;;;9.10;99.90;;;;;;5061168;28;20737;-75
2022/12/25 14:19:35;;;;;;;8.38;7.57;;;9.00;99.90;;;;;;5065327;28;20219;-75
2022/12/25 14:22:08;;;;;;;9.20;8.30;;;8.90;99.90;;;;;;5066130;28;20209;-74
2022/12/25 14:24:35;;;;;;;10.02;9.02;;;8.80;99.90;;;;;;5038655;28;20227;-75
2022/12/25 14:27:04;;;;;;;10.48;9.48;;;8.80;99.90;;;;;;5061371;28;20206;-73
2022/12/25 14:29:37;;;;;;;9.68;8.82;;;8.80;99.90;;;;;;5062520;28;20225;-75
2022/12/25 14:32:08;;;;;;;9.85;8.95;;;8.70;99.90;;;;;;5056102;28;20206;-80
2022/12/25 14:34:36;;;;;;;10.27;9.27;;;8.70;99.90;;;;;;5063064;28;20317;-76
2022/12/25 14:37:04;;;;;;;8.90;7.90;;;8.70;99.90;;;;;;5057978;28;20636;-80
2022/12/25 14:39:34;;;;;;;10.05;9.07;;;8.70;99.90;;;;;;5055803;28;20229;-80
2022/12/25 14:42:11;;;;;;;9.50;8.63;;;8.70;99.90;;;;;;5053895;28;20205;-78
2022/12/25 14:44:40;;;;;;;8.88;8.07;;;8.60;99.90;;;;;;5051949;28;20291;-79
2022/12/25 14:47:17;;;;;;;8.35;7.57;;;8.60;99.90;;;;;;5042254;28;20256;-73
2022/12/25 14:49:46;;;;;;;6.70;6.10;;;8.50;99.90;;;;;;5059038;28;20255;-80
2022/12/25 14:52:20;;;;;;;7.05;6.35;;;8.50;99.90;;;;;;5061966;28;20625;-73
2022/12/25 14:54:50;;;;;;;6.90;6.30;;;8.50;99.90;;;;;;5059354;28;20230;-74